Weather reports worldwide

Advertisment
Levens Hall, United Kingdom (99172): temperature & dewpoint: 15.01.2020 22:00:00 - 21.01.2020 22:00:00 (GMT)Levens Hall, United Kingdom (99172): precipitation: 15.01.2020 22:00:00 - 21.01.2020 22:00:00 (GMT)
Date & Time tt [°C] td [°C] rr [mm]
21.01.2020 22:00:00 6,3 6,1 0,0
21.01.2020 21:00:00 7,0 6,8 0,0
21.01.2020 20:00:00 6,9 6,7 0,0
21.01.2020 19:00:00 7,1 6,9 0,0
21.01.2020 18:00:00 7,4 7,1 0,0
21.01.2020 17:00:00 7,2 7,0 0,0
21.01.2020 16:00:00 7,4 7,1 0,0
21.01.2020 15:00:00 7,6 7,3 0,0
21.01.2020 14:00:00 7,6 7,0 0,0
21.01.2020 13:00:00 7,8 6,4 0,0
21.01.2020 12:00:00 7,1 5,7 0,0
21.01.2020 11:00:00 6,1 4,7 0,0
21.01.2020 10:00:00 5,3 4,4 0,0
21.01.2020 09:00:00 4,9 4,2 0,0
21.01.2020 08:00:00 4,4 3,8 0,0
21.01.2020 07:00:00 4,4 3,6 0,0
21.01.2020 06:00:00 4,8 4,0 0,0
21.01.2020 05:00:00 4,6 3,8 0,0
21.01.2020 04:00:00 3,9 2,5 0,0
21.01.2020 03:00:00 6,6 4,4 0,0
21.01.2020 02:00:00 6,3 4,4 0,0
21.01.2020 01:00:00 6,3 4,5 0,0
21.01.2020 00:00:00 6,5 4,4 0,0
20.01.2020 23:00:00 6,5 4,6 0,0
20.01.2020 22:00:00 6,2 4,2 0,0
20.01.2020 21:00:00 6,9 4,4 0,0
20.01.2020 20:00:00 6,8 4,4 0,0
20.01.2020 19:00:00 7,0 4,6 0,0
20.01.2020 18:00:00 6,6 4,6 0,0
20.01.2020 17:00:00 6,8 4,4 0,0
20.01.2020 16:00:00 7,1 4,7 0,0
20.01.2020 15:00:00 6,8 5,8 0,0
20.01.2020 14:00:00 6,9 5,7 0,0
20.01.2020 13:00:00 6,6 6,5 0,0
20.01.2020 12:00:00 4,5 4,5 0,0
20.01.2020 11:00:00 1,9 1,9 0,0
20.01.2020 10:00:00 0,4 0,4 0,0
20.01.2020 09:00:00 -0,5 -0,6 0,0
20.01.2020 08:00:00 -0,3 -0,3 0,0
20.01.2020 07:00:00 0,5 0,4 0,0
20.01.2020 06:00:00 1,2 1,1 0,0
20.01.2020 05:00:00 1,5 1,4 0,0
20.01.2020 04:00:00 1,7 1,6 0,0
20.01.2020 03:00:00 1,2 1,1 0,0
20.01.2020 02:00:00 1,7 1,6 0,0
20.01.2020 01:00:00 1,6 1,4 0,0
20.01.2020 00:00:00 2,7 2,4 0,0
19.01.2020 23:00:00 3,7 3,6 0,0
19.01.2020 22:00:00 4,0 3,8 0,0
19.01.2020 21:00:00 2,7 2,4 0,0
19.01.2020 20:00:00 2,7 2,2 0,0
19.01.2020 19:00:00 2,6 2,2 0,0
19.01.2020 18:00:00 2,6 2,0 0,0
19.01.2020 17:00:00 2,6 1,9 0,0
19.01.2020 16:00:00 2,9 2,1 0,0
19.01.2020 15:00:00 3,3 2,3 0,0
19.01.2020 14:00:00 2,6 1,5 0,0
19.01.2020 13:00:00 1,7 1,2 0,0
19.01.2020 12:00:00 0,3 -0,1 0,2
19.01.2020 11:00:00 -0,6 -0,9 0,0
19.01.2020 10:00:00 -1,5 -1,7 0,0
19.01.2020 09:00:00 -3,0 -3,3 0,0
19.01.2020 08:00:00 -3,6 -4,1 0,0
19.01.2020 07:00:00 -3,1 -3,4 0,0
19.01.2020 06:00:00 -3,2 -3,6 0,0
19.01.2020 05:00:00 -2,9 -3,2 0,0
19.01.2020 04:00:00 -3,2 -3,5 0,0
19.01.2020 03:00:00 -1,9 -2,1 0,0
19.01.2020 02:00:00 -2,4 -2,7 0,0
19.01.2020 01:00:00 -1,6 -1,8 0,0
19.01.2020 00:00:00 -1,2 -1,4 0,0
18.01.2020 23:00:00 -0,9 -1,2 0,0
18.01.2020 22:00:00 -0,9 -1,4 0,0
18.01.2020 21:00:00 0,0 -0,4 0,0
18.01.2020 20:00:00 0,8 0,1 0,0
18.01.2020 19:00:00 1,9 0,9 0,0
18.01.2020 18:00:00 3,4 1,6 0,0
18.01.2020 17:00:00 4,0 1,7 0,0
18.01.2020 16:00:00 5,1 2,5 0,0
18.01.2020 15:00:00 6,6 2,0 0,0
18.01.2020 14:00:00 7,3 2,6 0,0
18.01.2020 13:00:00 7,1 2,3 0,0
18.01.2020 12:00:00 6,5 2,8 0,0
18.01.2020 11:00:00 4,2 3,5 0,2
18.01.2020 10:00:00 2,2 1,8 0,0
18.01.2020 09:00:00 1,2 0,7 0,0
18.01.2020 08:00:00 1,6 1,0 0,0
18.01.2020 07:00:00 0,7 0,5 0,0
18.01.2020 06:00:00 0,2 -0,4 0,0
18.01.2020 05:00:00 1,4 0,7 0,0
18.01.2020 04:00:00 1,6 0,4 0,0
18.01.2020 03:00:00 3,0 1,6 0,0
18.01.2020 02:00:00 4,4 2,1 0,0
18.01.2020 01:00:00 4,2 2,4 0,4
18.01.2020 00:00:00 4,1 2,1 0,2
17.01.2020 23:00:00 5,0 3,1 0,4
17.01.2020 22:00:00 3,7 2,1 0,4
17.01.2020 21:00:00 4,2 3,2 0,2
17.01.2020 20:00:00 4,2 2,5 0,0
17.01.2020 19:00:00 4,8 2,7 0,4
17.01.2020 18:00:00 5,7 3,6 0,2
17.01.2020 17:00:00 5,4 3,0 0,0
17.01.2020 16:00:00 6,1 2,9 0,0
17.01.2020 15:00:00 6,9 3,1 0,0
17.01.2020 14:00:00 6,5 2,9 0,0
17.01.2020 13:00:00 5,9 3,5 0,0
17.01.2020 12:00:00 5,2 4,2 0,0
17.01.2020 11:00:00 4,8 4,1 0,0
17.01.2020 10:00:00 4,9 3,5 1,0
17.01.2020 09:00:00 5,0 4,3 0,8
17.01.2020 08:00:00 5,3 4,5 0,6
17.01.2020 07:00:00 5,9 5,3 1,8
17.01.2020 06:00:00 6,3 5,9 0,4
17.01.2020 05:00:00 6,7 6,2 0,0
17.01.2020 04:00:00 6,9 6,2 1,0
17.01.2020 03:00:00 7,0 6,1 0,4
17.01.2020 02:00:00 7,0 5,9 0,4
17.01.2020 01:00:00 7,9 6,1 0,0
17.01.2020 00:00:00 7,9 6,5 0,0
16.01.2020 23:00:00 8,2 7,0 0,0
16.01.2020 22:00:00 7,6 7,0 0,0
16.01.2020 21:00:00 8,7 7,6 0,0
16.01.2020 20:00:00 10,2 8,7 0,2
16.01.2020 19:00:00 10,5 9,5 1,4
16.01.2020 18:00:00 10,8 9,0 0,8
16.01.2020 17:00:00 10,8 9,1 0,8
16.01.2020 16:00:00 11,2 7,9 0,2
16.01.2020 15:00:00 10,2 7,4 0,0
16.01.2020 14:00:00 10,2 6,2 0,0
16.01.2020 13:00:00 8,9 4,5 0,0
16.01.2020 12:00:00 8,7 4,4 0,0
16.01.2020 11:00:00 8,5 4,4 0,0
16.01.2020 10:00:00 8,2 5,0 0,0
16.01.2020 09:00:00 7,4 4,4 0,0
16.01.2020 08:00:00 7,2 4,5 0,0
16.01.2020 07:00:00 6,5 3,9 0,0
16.01.2020 06:00:00 7,0 4,1 0,0
16.01.2020 05:00:00 7,1 4,1 0,0
16.01.2020 04:00:00 7,1 3,9 0,0
16.01.2020 03:00:00 6,8 4,2 0,2
16.01.2020 02:00:00 6,5 4,0 0,0
16.01.2020 01:00:00 6,3 4,3 0,0
16.01.2020 00:00:00 6,3 4,4 0,0
15.01.2020 23:00:00 6,4 4,7 0,0
15.01.2020 22:00:00 6,6 4,7 0,0

tt = temperature
td = dewpoint
rr = precipitation

Next stations